Glasston, ND (58236)

5:39 AM CDT on October 01, 2014 (GMT -0500)
Cavalier | Change Station
CLOSE
Current Station
Airport
Location: Cavalier,
Elevation: 892 ft
Nearby Weather Stations

Elev 892 ft 48.78 °N, 97.63 °W | Updated 24 minutes ago

Overcast
Overcast
59 °F
Feels Like 59 °F
N
18
Wind Variable Wind from South
Gusts 30 mph

Today
High -- | Low -- °F
--% Chance of Precip.
Yesterday
High -- | Low -- °F
Precip. -- in
7:29 AM 7:08 PM
Waxing Crescent, 46% visible
Pressure 29.43 in
Visibility 10.0 miles
Clouds Mostly Cloudy 2000 ft
Overcast 2400 ft
Dew Point 54 °F
Humidity 82%
Rainfall 0.00 in
Snow Depth Not available.
UV 0 out of 12
Pollen 2.60 out of 12
Air Quality Not available.
Flu Activity Not available.
METAR K2C8 011015Z AUTO 19016G26KT 10SM BKN020 OVC024 15/12 A2943 RMK AO2

More Conditions Fewer Conditions

Pressure 29.43 in
Visibility 10.0 miles
Clouds Mostly Cloudy 2000 ft
Overcast 2400 ft
Dew Point 54 °F
Humidity 82%
Rainfall 0.00 in
Snow Depth Not available.
UV 0 out of 12
Pollen 2.60 out of 12
Air Quality Not available.
Flu Activity Not available.
METAR K2C8 011015Z AUTO 19016G26KT 10SM BKN020 OVC024 15/12 A2943 RMK AO2

More Conditions Fewer Conditions

10-Day Weather Forecast

Almanac

Astronomy

Oct. 01, 2014 Rise Set
Actual Time 7:29 AM CDT 7:08 PM CDT
Civil Twilight 6:57 AM CDT 7:39 PM CDT
Nautical Twilight 6:21 AM CDT 8:16 PM CDT
Astronomical Twilight 5:44 AM CDT 8:53 PM CDT
Moon 2:52 PM CDT No Moon Set
Length of Visible Light 12h 41m
Length of Day
11h 39m
Tomorrow will be 3m 32s shorter.
Waxing Crescent, 46% of the Moon is Illuminated
Today
Waxing Crescent
Oct 1
First Quarter
Oct 8
Full
Oct 15
Last Quarter
Oct 23
New

Today's Extremes

State Highs State Lows

Community

WunderPhotos

Upload Photos

1,757,905 photos uploaded!

WunderBlogs® & News

Nearby

Snow Depth

Station Depth Elevation
No new snow has been reported.

Earthquake Activity

City Distance Mag. Time & Date
No recent earthquake activity has been reported nearby.
Minimum magnitude displayed is 2.5.

Coastal Water Temperatures

Place Temperature
No Stations Reporting

Nearby Weather Stations